WCOM7: Spring River, Waco, MO

                                SHEF ID:       WCOM7     Spring R A - Waco MO
STATION TYPE: Stream Gauge
Regulating: Stage = 19.00, Flow = 17743

PRECIP STAGE RIV-FLOW BAT-LOAD
in ft cfs volt
Ccp-Rev Ccp-Rev Ccp-Rev Ccp-Rev
(America/Chicago)
04/27 00:00 0.00 5.33 2601 12.17
04/27 01:00 0.00 6.53 3625 12.14
04/27 02:00 0.00 7.15 4207 12.12
04/27 03:00 0.00 7.40 4442 12.11
04/27 04:00 0.00 7.57 4604 12.08
04/27 05:00 0.00 7.61 4642 12.08
04/27 06:00 0.00 7.52 4556 12.05
04/27 07:00 0.00 7.49 4527 12.06
04/27 08:00 0.00 7.55 4585 12.17
04/27 09:00 0.00 7.48 4518 12.50
04/27 10:00 0.00 7.33 4375 12.77
04/27 11:00 0.00 7.08 4141 12.86
04/27 12:00 0.00 6.77 3848 12.60
04/27 13:00 0.00 6.47 3570 12.77
04/27 14:00 0.00 6.11 3245 12.68
04/27 15:00 0.00 5.85 3023 12.65
04/27 16:00 0.00 5.55 2780 12.53
04/27 17:00 0.00 5.44 2690 12.50
04/27 18:00 0.00 5.26 2544 12.47
04/27 19:00 0.00 5.07 2393 12.42
04/27 20:00 0.00 4.90 2260 12.32
04/27 21:00 0.00 4.76 2152 12.23
04/27 22:00 0.00 4.68 2091 12.17
04/27 23:00 0.00 4.66 2076 12.14
Data processed at Tue 28Apr2026 04:37 GMT

NOTICE: If you are parsing this page

Please convert to using our Data API. Starting early 2026 we will be migrating to: https://water.usace.army.mil with modern pages rendered in JavaScript. When this migration completes you will no longer be able to scrape this page! CWMSDataAPI (CDA)

Timeseries IDs (TSIDs)

TSIDs used from left to right in the data table
WACO.Precip-Inc.Total.1Hour.1Hour.Ccp-Rev
WACO.Stage.Inst.1Hour.0.Ccp-Rev
WACO.Flow.Inst.1Hour.0.Ccp-Rev
WACO.Volt-Battery Load.Inst.1Hour.0.Ccp-Rev

                            

All information presented herein is the property of the government of the United States of America and may be revised or deleted at any time without prior notice. Dissemination of this information without the expressed written consent of the Public Affairs Office, Tulsa District U.S. Army Corps of Engineers is strictly prohibited. These data are gathered electronically and, as presented, have NOT undergone any form of quality control. These data are NOT guaranteed to be valid or correct.